Time;durP1;ratioP1;P1;durP2;ratioP2;P2;SDS_P1;SDS_P2;PMS_P1;PMS_P2;Temp;Humidity;BMP_temperature;BMP_pressure;BME280_temperature;BME280_humidity;BME280_pressure;Samples;Min_cycle;Max_cycle;Signal;HPM_P1;HPM_P2
2023/04/04 00:01:02;;;;;;;3.80;2.50;;;4.40;99.90;;;;;;5008200;28;20219;-63
2023/04/04 00:03:28;;;;;;;3.93;3.00;;;4.40;99.90;;;;;;5008758;28;20237;-62
2023/04/04 00:05:54;;;;;;;5.40;2.67;;;4.60;99.90;;;;;;5033019;28;20192;-62
2023/04/04 00:08:20;;;;;;;3.13;2.83;;;4.60;99.90;;;;;;5008496;28;20731;-64
2023/04/04 00:10:46;;;;;;;2.80;2.63;;;4.30;99.90;;;;;;5008670;28;20184;-62
2023/04/04 00:13:12;;;;;;;3.83;3.20;;;4.20;99.90;;;;;;5011590;28;20664;-62
2023/04/04 00:15:37;;;;;;;2.30;2.20;;;4.10;99.90;;;;;;5011034;28;20191;-63
2023/04/04 00:18:03;;;;;;;7.00;3.33;;;4.10;99.90;;;;;;5012912;28;20223;-63
2023/04/04 00:20:30;;;;;;;2.73;2.53;;;4.00;99.90;;;;;;4994595;28;20245;-63
2023/04/04 00:22:56;;;;;;;2.43;2.33;;;4.00;99.90;;;;;;5013354;28;20183;-64
2023/04/04 00:25:22;;;;;;;5.67;2.33;;;4.10;99.90;;;;;;5010301;28;20714;-63
2023/04/04 00:27:48;;;;;;;7.07;2.83;;;4.10;99.90;;;;;;5012914;28;20266;-64
2023/04/04 00:30:14;;;;;;;2.57;2.37;;;4.00;99.90;;;;;;5011430;28;20198;-63
2023/04/04 00:32:40;;;;;;;3.43;2.60;;;4.00;99.90;;;;;;5004701;28;20215;-63
2023/04/04 00:35:06;;;;;;;2.27;2.17;;;3.80;99.90;;;;;;4994740;28;20196;-63
2023/04/04 00:37:32;;;;;;;2.87;2.50;;;3.80;99.90;;;;;;4997069;28;20227;-63
2023/04/04 00:39:58;;;;;;;2.93;2.73;;;3.80;99.90;;;;;;4999784;28;20187;-63
2023/04/04 00:42:24;;;;;;;4.60;2.80;;;3.80;99.90;;;;;;5025073;28;20666;-63
2023/04/04 00:44:53;;;;;;;2.30;2.10;;;3.80;99.90;;;;;;5004968;28;20184;-63
2023/04/04 00:47:22;;;;;;;2.93;2.50;;;4.10;99.90;;;;;;5021911;28;20644;-62
2023/04/04 00:49:47;;;;;;;2.23;2.13;;;4.10;99.90;;;;;;5012660;28;20188;-63
2023/04/04 00:52:13;;;;;;;1.93;1.83;;;3.90;99.90;;;;;;5009086;28;20215;-63
2023/04/04 00:54:39;;;;;;;3.33;3.13;;;3.70;99.90;;;;;;5008503;28;20275;-62
2023/04/04 00:57:07;;;;;;;3.00;2.47;;;3.60;99.90;;;;;;5000362;28;20196;-62
2023/04/04 00:59:33;;;;;;;2.67;2.47;;;3.50;99.90;;;;;;5005290;28;20246;-63
2023/04/04 01:01:59;;;;;;;2.63;2.43;;;3.50;99.90;;;;;;5003927;28;20644;-61
2023/04/04 01:04:28;;;;;;;7.40;2.77;;;3.50;99.90;;;;;;5008289;28;20196;-63
2023/04/04 01:06:54;;;;;;;3.17;2.97;;;3.50;99.90;;;;;;5005787;28;20184;-62
2023/04/04 01:09:20;;;;;;;4.07;3.53;;;3.40;99.90;;;;;;5009320;28;20214;-62
2023/04/04 01:11:46;;;;;;;2.70;2.50;;;3.40;99.90;;;;;;5005342;28;20187;-63
2023/04/04 01:14:11;;;;;;;4.10;2.73;;;3.40;99.90;;;;;;5006267;28;20558;-62
2023/04/04 01:16:38;;;;;;;3.30;2.97;;;3.40;99.90;;;;;;4995021;28;20238;-63
2023/04/04 01:19:08;;;;;;;2.93;2.60;;;3.40;99.90;;;;;;5012151;28;20591;-62
2023/04/04 01:21:35;;;;;;;2.63;2.50;;;3.30;99.90;;;;;;5011334;28;20542;-62
2023/04/04 01:24:02;;;;;;;5.37;2.40;;;3.30;99.90;;;;;;5005324;28;20199;-62
2023/04/04 01:26:28;;;;;;;3.33;2.30;;;3.20;99.90;;;;;;5008271;28;20237;-63
2023/04/04 01:28:56;;;;;;;3.43;3.13;;;3.20;99.90;;;;;;5002543;28;20648;-64
2023/04/04 01:31:35;;;;;;;2.90;2.67;;;3.20;99.90;;;;;;5003349;28;20195;-63
2023/04/04 01:34:27;;;;;;;5.07;2.73;;;3.20;99.90;;;;;;4999408;28;20670;-62
2023/04/04 01:37:02;;;;;;;2.70;2.37;;;3.10;99.90;;;;;;5008039;28;20234;-62
2023/04/04 01:39:32;;;;;;;3.40;3.07;;;3.10;99.90;;;;;;5009846;28;20182;-63
2023/04/04 01:41:58;;;;;;;3.07;2.80;;;3.10;99.90;;;;;;5002279;28;20199;-62
2023/04/04 01:44:25;;;;;;;3.30;3.00;;;3.10;99.90;;;;;;5000935;28;20206;-63
2023/04/04 01:46:54;;;;;;;6.13;2.80;;;3.10;99.90;;;;;;5007384;28;20195;-62
2023/04/04 01:49:23;;;;;;;3.67;3.17;;;3.00;99.90;;;;;;4999291;28;20202;-63
2023/04/04 01:51:51;;;;;;;2.33;2.23;;;3.00;99.90;;;;;;5001975;28;20176;-62
2023/04/04 01:54:20;;;;;;;4.43;2.87;;;3.00;99.90;;;;;;5008721;28;20298;-62
2023/04/04 01:56:45;;;;;;;2.40;2.30;;;3.00;99.90;;;;;;5024662;28;20265;-62
2023/04/04 01:59:11;;;;;;;3.70;3.40;;;3.00;99.90;;;;;;5012355;28;20211;-62
2023/04/04 02:01:37;;;;;;;3.13;2.93;;;2.90;99.90;;;;;;5012288;28;20198;-62
2023/04/04 02:04:04;;;;;;;2.13;1.80;;;2.90;99.90;;;;;;5012549;28;20192;-63
2023/04/04 02:06:29;;;;;;;4.50;2.30;;;2.90;99.90;;;;;;5004808;28;20668;-63
2023/04/04 02:08:55;;;;;;;3.80;2.47;;;2.80;99.90;;;;;;5023028;28;20182;-62
2023/04/04 02:11:21;;;;;;;2.93;2.73;;;2.80;99.90;;;;;;5020328;28;20542;-62
2023/04/04 02:13:48;;;;;;;2.20;2.10;;;2.80;99.90;;;;;;5028225;28;20615;-62
2023/04/04 02:16:14;;;;;;;2.80;2.70;;;2.70;99.90;;;;;;5019267;28;20225;-63
2023/04/04 02:18:40;;;;;;;2.57;2.47;;;2.70;99.90;;;;;;5022312;28;20262;-62
2023/04/04 02:21:06;;;;;;;4.40;2.40;;;2.70;99.90;;;;;;5026336;28;20191;-63
2023/04/04 02:23:31;;;;;;;3.13;2.57;;;2.70;99.90;;;;;;5000921;28;20707;-62
2023/04/04 02:25:58;;;;;;;3.00;2.00;;;2.70;99.90;;;;;;5028092;28;20202;-62
2023/04/04 02:28:26;;;;;;;3.60;2.33;;;2.70;99.90;;;;;;5015661;28;20248;-63
2023/04/04 02:30:52;;;;;;;2.30;2.20;;;2.70;99.90;;;;;;5043877;28;20201;-63
2023/04/04 02:33:18;;;;;;;2.40;2.20;;;2.70;99.90;;;;;;5020268;28;20302;-64
2023/04/04 02:35:43;;;;;;;2.63;2.13;;;2.60;99.90;;;;;;5029016;28;20190;-63
2023/04/04 02:38:09;;;;;;;2.83;2.63;;;2.60;99.90;;;;;;5019182;28;20631;-64
2023/04/04 02:40:38;;;;;;;7.07;2.90;;;2.60;99.90;;;;;;5031345;28;20640;-62
2023/04/04 02:43:04;;;;;;;2.43;2.30;;;2.60;99.90;;;;;;5011720;28;20209;-62
2023/04/04 02:45:29;;;;;;;2.60;2.40;;;2.60;99.90;;;;;;5031534;28;20195;-62
2023/04/04 02:47:55;;;;;;;2.80;2.17;;;2.60;99.90;;;;;;5007105;28;20214;-63
2023/04/04 02:50:21;;;;;;;3.07;2.80;;;2.50;99.90;;;;;;5015013;28;20220;-63
2023/04/04 02:52:46;;;;;;;2.53;2.43;;;2.50;99.90;;;;;;5005185;28;20233;-64
2023/04/04 02:55:12;;;;;;;2.43;2.27;;;2.40;99.90;;;;;;5021951;28;20192;-63
2023/04/04 02:57:39;;;;;;;2.93;2.77;;;2.40;99.90;;;;;;5021216;28;20188;-63
2023/04/04 03:00:05;;;;;;;2.60;2.50;;;2.50;99.90;;;;;;5025671;28;20221;-62
2023/04/04 03:02:31;;;;;;;2.70;2.50;;;2.60;99.90;;;;;;5012441;28;20207;-63
2023/04/04 03:04:57;;;;;;;2.53;2.43;;;2.60;99.90;;;;;;5024710;28;20194;-63
2023/04/04 03:07:22;;;;;;;4.30;2.93;;;2.50;99.90;;;;;;5022273;28;20219;-63
2023/04/04 03:09:48;;;;;;;2.93;2.60;;;2.50;99.90;;;;;;5039298;28;20694;-63
2023/04/04 03:12:14;;;;;;;4.20;2.90;;;2.40;99.90;;;;;;5011929;28;20219;-63
2023/04/04 03:14:40;;;;;;;3.07;2.83;;;2.40;99.90;;;;;;5019010;28;20196;-63
2023/04/04 03:17:08;;;;;;;3.10;2.90;;;2.40;99.90;;;;;;5026577;28;20247;-62
2023/04/04 03:19:35;;;;;;;2.80;2.70;;;2.40;99.90;;;;;;5020818;28;20275;-62
2023/04/04 03:22:00;;;;;;;2.73;2.53;;;2.30;99.90;;;;;;5024300;28;20188;-61
2023/04/04 03:24:27;;;;;;;3.67;3.27;;;2.20;99.90;;;;;;5026081;28;20205;-62
2023/04/04 03:26:53;;;;;;;7.17;2.63;;;2.20;99.90;;;;;;5017184;28;20590;-62
2023/04/04 03:29:18;;;;;;;4.13;2.83;;;2.20;99.90;;;;;;5004351;28;20184;-62
2023/04/04 03:31:45;;;;;;;3.50;2.60;;;2.10;99.90;;;;;;5018028;28;20246;-62
2023/04/04 03:34:11;;;;;;;3.03;2.23;;;2.10;99.90;;;;;;5022024;28;20188;-63
2023/04/04 03:36:37;;;;;;;3.60;2.83;;;2.00;99.90;;;;;;5019004;28;20617;-63
2023/04/04 03:39:02;;;;;;;3.37;3.10;;;2.00;99.90;;;;;;5030401;28;20273;-62
2023/04/04 03:41:28;;;;;;;3.33;2.90;;;2.00;99.90;;;;;;5006539;28;20271;-62
2023/04/04 03:43:54;;;;;;;3.43;2.33;;;2.10;99.90;;;;;;5012100;28;20197;-62
2023/04/04 03:46:20;;;;;;;2.83;2.60;;;2.00;99.90;;;;;;5008990;28;20183;-63
2023/04/04 03:48:46;;;;;;;4.20;3.50;;;2.00;99.90;;;;;;5014427;28;20258;-62
2023/04/04 03:51:11;;;;;;;6.13;2.90;;;2.10;99.90;;;;;;5021223;28;20284;-63
2023/04/04 03:53:37;;;;;;;5.87;3.50;;;2.00;99.90;;;;;;5007678;28;20219;-62
2023/04/04 03:56:03;;;;;;;3.33;3.03;;;2.00;99.90;;;;;;5025945;28;20195;-63
2023/04/04 03:58:29;;;;;;;3.37;3.03;;;1.90;99.90;;;;;;5025860;28;20521;-65
2023/04/04 04:00:55;;;;;;;3.77;3.33;;;1.80;99.90;;;;;;5029416;28;20794;-62
2023/04/04 04:03:21;;;;;;;5.57;3.37;;;1.90;99.90;;;;;;5014068;28;20281;-63
2023/04/04 04:05:46;;;;;;;2.93;2.73;;;1.80;99.90;;;;;;5020096;28;20184;-62
2023/04/04 04:08:12;;;;;;;3.67;3.37;;;1.70;99.90;;;;;;5015180;28;20183;-62
2023/04/04 04:10:38;;;;;;;5.77;2.97;;;1.60;99.90;;;;;;5016500;28;20656;-62
2023/04/04 04:13:04;;;;;;;7.77;4.40;;;1.60;99.90;;;;;;5025147;28;20320;-62
2023/04/04 04:15:29;;;;;;;4.20;3.80;;;1.60;99.90;;;;;;5016011;28;20214;-62
2023/04/04 04:17:55;;;;;;;3.40;3.10;;;1.60;99.90;;;;;;5030249;28;20237;-62
2023/04/04 04:20:21;;;;;;;3.70;3.43;;;1.60;99.90;;;;;;5016488;28;20183;-63
2023/04/04 04:22:48;;;;;;;3.83;3.43;;;1.60;99.90;;;;;;5005676;28;20211;-62
2023/04/04 04:25:16;;;;;;;3.87;2.93;;;1.60;99.90;;;;;;5016438;28;20179;-63
2023/04/04 04:27:44;;;;;;;5.57;3.47;;;1.60;99.90;;;;;;5021752;28;20188;-62
2023/04/04 04:30:09;;;;;;;3.60;3.37;;;1.60;99.90;;;;;;5012005;28;20285;-62
2023/04/04 04:32:35;;;;;;;3.50;2.97;;;1.60;99.90;;;;;;5012618;28;20772;-62
2023/04/04 04:35:01;;;;;;;3.47;3.17;;;1.60;99.90;;;;;;5010537;28;20192;-62
2023/04/04 04:37:27;;;;;;;5.13;2.90;;;1.70;99.90;;;;;;5020668;28;20195;-62
2023/04/04 04:39:53;;;;;;;3.20;3.00;;;1.70;99.90;;;;;;5023642;28;20597;-63
2023/04/04 04:42:18;;;;;;;3.53;3.33;;;1.80;99.90;;;;;;5005679;28;20191;-63
2023/04/04 04:44:44;;;;;;;3.90;3.27;;;1.70;99.90;;;;;;5026095;28;20186;-62
2023/04/04 04:47:10;;;;;;;8.77;3.97;;;1.70;99.90;;;;;;5007750;28;20570;-62
2023/04/04 04:49:35;;;;;;;3.80;2.80;;;1.70;99.90;;;;;;5010558;28;20287;-63
2023/04/04 04:52:01;;;;;;;2.60;2.40;;;1.70;99.90;;;;;;5005527;28;20624;-63
2023/04/04 04:54:27;;;;;;;4.00;3.50;;;1.60;99.90;;;;;;5029988;28;20186;-63
2023/04/04 04:56:53;;;;;;;5.90;3.30;;;1.50;99.90;;;;;;5010553;28;20258;-62
2023/04/04 04:59:19;;;;;;;5.43;3.27;;;1.50;99.90;;;;;;5028724;28;20274;-63
2023/04/04 05:01:45;;;;;;;5.00;3.73;;;1.40;99.90;;;;;;4993451;28;20319;-63
2023/04/04 05:04:11;;;;;;;5.97;4.10;;;1.40;99.90;;;;;;5016964;28;20215;-64
2023/04/04 05:06:37;;;;;;;6.33;4.53;;;1.40;99.90;;;;;;5016850;28;20193;-62
2023/04/04 05:09:04;;;;;;;4.00;3.60;;;1.40;99.90;;;;;;5020872;28;20552;-62
2023/04/04 05:11:30;;;;;;;9.80;3.67;;;1.40;99.90;;;;;;4998764;28;20194;-63
2023/04/04 05:13:56;;;;;;;7.73;3.77;;;1.40;99.90;;;;;;5021270;28;20219;-62
2023/04/04 05:16:22;;;;;;;4.57;3.50;;;1.40;99.90;;;;;;5019593;28;20191;-64
2023/04/04 05:18:47;;;;;;;3.30;3.10;;;1.40;99.90;;;;;;5019155;28;20525;-62
2023/04/04 05:21:13;;;;;;;3.63;3.33;;;1.40;99.90;;;;;;5002314;28;20720;-65
2023/04/04 05:23:39;;;;;;;3.83;3.53;;;1.40;99.90;;;;;;5002071;28;20655;-62
2023/04/04 05:26:05;;;;;;;5.90;3.60;;;1.30;99.90;;;;;;5013228;28;20636;-63
2023/04/04 05:28:31;;;;;;;2.97;2.77;;;1.30;99.90;;;;;;5023428;28;20215;-62
2023/04/04 05:30:56;;;;;;;11.57;4.00;;;1.30;99.90;;;;;;5019595;28;20215;-62
2023/04/04 05:33:22;;;;;;;4.80;4.27;;;1.30;99.90;;;;;;5008146;28;20215;-62
2023/04/04 05:35:48;;;;;;;4.27;3.87;;;1.30;99.90;;;;;;5028118;28;20186;-62
2023/04/04 05:38:13;;;;;;;5.07;3.80;;;1.20;99.90;;;;;;5024549;28;20198;-62
2023/04/04 05:40:39;;;;;;;5.83;4.03;;;1.20;99.90;;;;;;5015107;28;20218;-65
2023/04/04 05:43:05;;;;;;;4.90;3.70;;;1.30;99.90;;;;;;5003068;28;20279;-62
2023/04/04 05:45:31;;;;;;;4.73;4.23;;;1.30;99.90;;;;;;5034434;28;20195;-62
2023/04/04 05:47:56;;;;;;;8.53;3.93;;;1.30;99.90;;;;;;5027081;28;20184;-62
2023/04/04 05:50:22;;;;;;;4.17;3.87;;;1.30;99.90;;;;;;5025944;28;20274;-62
2023/04/04 05:52:48;;;;;;;4.57;3.77;;;1.30;99.90;;;;;;5025181;28;20218;-62
2023/04/04 05:55:14;;;;;;;3.70;3.23;;;1.40;99.90;;;;;;5014046;28;20267;-62
2023/04/04 05:57:49;;;;;;;3.20;3.10;;;1.40;99.90;;;;;;5007321;28;20269;-62
2023/04/04 06:00:16;;;;;;;7.07;3.43;;;1.40;99.90;;;;;;5016832;28;20230;-63
2023/04/04 06:02:43;;;;;;;5.03;4.63;;;1.40;99.90;;;;;;5004506;28;20184;-63
2023/04/04 06:05:09;;;;;;;10.53;4.13;;;1.50;99.90;;;;;;5009032;28;20408;-62
2023/04/04 06:07:35;;;;;;;4.23;3.83;;;1.50;99.90;;;;;;5012252;28;20188;-62
2023/04/04 06:10:02;;;;;;;7.37;4.77;;;1.50;99.90;;;;;;5041699;28;20185;-62
2023/04/04 06:12:27;;;;;;;4.73;4.20;;;1.50;99.90;;;;;;5028132;28;20241;-62
2023/04/04 06:14:53;;;;;;;3.90;3.60;;;1.40;99.90;;;;;;5029942;28;20270;-62
2023/04/04 06:17:19;;;;;;;6.40;3.83;;;1.40;99.90;;;;;;5004271;28;20603;-62
2023/04/04 06:19:44;;;;;;;5.73;3.80;;;1.50;99.90;;;;;;5033212;28;20614;-66
2023/04/04 06:22:10;;;;;;;4.10;3.63;;;1.60;99.90;;;;;;5026457;28;20194;-62
2023/04/04 06:24:36;;;;;;;4.43;3.37;;;1.70;99.90;;;;;;5011924;28;20275;-63
2023/04/04 06:27:01;;;;;;;5.70;3.67;;;1.70;99.90;;;;;;5031829;28;20547;-62
2023/04/04 06:29:27;;;;;;;4.20;3.90;;;1.80;99.90;;;;;;5023514;28;20201;-62
2023/04/04 06:31:53;;;;;;;7.73;4.20;;;1.90;99.90;;;;;;5020174;28;20635;-63
2023/04/04 06:34:20;;;;;;;4.17;3.87;;;2.00;99.90;;;;;;5010975;28;20562;-62
2023/04/04 06:36:46;;;;;;;5.40;4.67;;;2.10;99.90;;;;;;5021139;28;20184;-63
2023/04/04 06:39:11;;;;;;;6.93;4.20;;;2.10;99.90;;;;;;5018858;28;20188;-62
2023/04/04 06:41:37;;;;;;;4.37;3.97;;;2.30;99.90;;;;;;5000929;28;20191;-63
2023/04/04 06:44:02;;;;;;;4.57;4.17;;;2.30;99.90;;;;;;5034883;28;20198;-62
2023/04/04 06:46:30;;;;;;;6.87;6.27;;;2.30;99.90;;;;;;5016991;28;20198;-62
2023/04/04 06:48:56;;;;;;;7.03;4.53;;;2.30;99.90;;;;;;5013998;28;20699;-62
2023/04/04 06:51:22;;;;;;;3.97;3.67;;;2.50;99.90;;;;;;5012978;28;20286;-62
2023/04/04 06:53:48;;;;;;;4.27;3.97;;;2.70;99.90;;;;;;5007308;28;20579;-62
2023/04/04 06:56:14;;;;;;;4.43;4.03;;;2.80;99.90;;;;;;5012477;28;20666;-61
2023/04/04 06:58:40;;;;;;;3.93;3.57;;;3.00;99.90;;;;;;5033767;28;20249;-62
2023/04/04 07:01:06;;;;;;;9.83;4.40;;;3.00;99.90;;;;;;5013205;28;20188;-62
2023/04/04 07:03:32;;;;;;;6.63;4.23;;;3.10;99.90;;;;;;5019296;28;20190;-63
2023/04/04 07:05:57;;;;;;;3.53;3.33;;;3.10;99.90;;;;;;5015105;28;20205;-62
2023/04/04 07:08:23;;;;;;;3.60;3.40;;;3.30;99.90;;;;;;5004507;28;20187;-62
2023/04/04 07:10:49;;;;;;;4.57;4.17;;;3.40;99.90;;;;;;5000702;28;20184;-62
2023/04/04 07:13:14;;;;;;;3.60;3.40;;;3.50;99.90;;;;;;5024614;28;20286;-65
2023/04/04 07:15:47;;;;;;;6.30;4.13;;;3.50;99.90;;;;;;5012904;28;20194;-62
2023/04/04 07:18:13;;;;;;;3.93;3.63;;;3.40;99.90;;;;;;5002914;28;20563;-63
2023/04/04 07:20:38;;;;;;;5.50;4.43;;;3.40;99.90;;;;;;5013025;28;20187;-63
2023/04/04 07:23:04;;;;;;;4.17;3.73;;;3.70;99.90;;;;;;5009908;28;20195;-61
2023/04/04 07:25:30;;;;;;;5.30;4.57;;;3.90;99.90;;;;;;5026965;28;20240;-66
2023/04/04 07:27:55;;;;;;;5.37;4.03;;;3.80;99.90;;;;;;5019201;28;20192;-62
2023/04/04 07:30:25;;;;;;;9.80;4.17;;;4.50;99.90;;;;;;5012416;28;20541;-63
2023/04/04 07:32:57;;;;;;;4.20;3.80;;;6.00;99.90;;;;;;5010860;28;20240;-60
2023/04/04 07:35:23;;;;;;;6.20;3.37;;;7.90;99.90;;;;;;5008919;28;20239;-67
2023/04/04 07:37:49;;;;;;;3.67;3.37;;;9.00;99.90;;;;;;5012692;28;20192;-62
2023/04/04 07:40:15;;;;;;;3.67;3.37;;;9.60;99.90;;;;;;5008377;28;20195;-62
2023/04/04 07:42:50;;;;;;;3.83;3.15;;;10.80;99.90;;;;;;5013862;28;20195;-63
2023/04/04 07:45:20;;;;;;;4.20;3.22;;;12.30;99.90;;;;;;5024363;28;20224;-63
2023/04/04 07:47:46;;;;;;;3.75;3.40;;;13.00;99.90;;;;;;5007828;28;20218;-63
2023/04/04 07:50:12;;;;;;;3.45;2.78;;;13.10;99.90;;;;;;4997537;28;20219;-63
2023/04/04 07:52:39;;;;;;;6.53;2.97;;;12.50;99.90;;;;;;5003735;28;20289;-65
2023/04/04 07:55:06;;;;;;;3.65;3.35;;;11.70;99.90;;;;;;5020128;28;20191;-63
2023/04/04 07:57:40;;;;;;;5.53;2.35;;;12.10;99.90;;;;;;5019894;28;20176;-61
2023/04/04 08:00:10;;;;;;;4.55;2.65;;;12.10;99.90;;;;;;5011079;28;20197;-62
2023/04/04 08:02:38;;;;;;;3.15;2.65;;;12.70;99.90;;;;;;5001051;28;20735;-62
2023/04/04 08:05:05;;;;;;;3.20;2.90;;;12.10;99.90;;;;;;5007013;28;20190;-63
2023/04/04 08:07:30;;;;;;;2.70;2.35;;;11.50;99.90;;;;;;5027788;28;20236;-63
2023/04/04 08:09:56;;;;;;;5.05;3.25;;;11.30;99.90;;;;;;5017216;28;20182;-63
2023/04/04 08:12:22;;;;;;;3.83;3.00;;;11.50;99.90;;;;;;5024038;28;20293;-63
2023/04/04 08:14:47;;;;;;;2.85;2.65;;;11.50;99.90;;;;;;5013043;28;20282;-64
2023/04/04 08:17:17;;;;;;;3.03;2.63;;;11.70;99.90;;;;;;5024437;28;20612;-63
2023/04/04 08:19:43;;;;;;;2.28;2.08;;;12.90;99.90;;;;;;5019703;28;20198;-64
2023/04/04 08:22:09;;;;;;;2.90;2.70;;;12.70;99.90;;;;;;5009593;28;20574;-63
2023/04/04 08:24:35;;;;;;;3.35;2.83;;;12.70;99.90;;;;;;5004748;28;20180;-64
2023/04/04 08:27:01;;;;;;;2.60;2.40;;;13.00;99.90;;;;;;5024171;28;20553;-64
2023/04/04 08:29:28;;;;;;;2.97;2.55;;;12.20;99.90;;;;;;4997486;28;20657;-65
2023/04/04 08:31:54;;;;;;;22.13;3.53;;;11.70;99.90;;;;;;5025731;28;20549;-62
2023/04/04 08:34:22;;;;;;;4.65;2.35;;;12.20;99.90;;;;;;5000327;28;20180;-65
2023/04/04 08:36:48;;;;;;;2.70;2.45;;;12.60;99.90;;;;;;5021726;28;20201;-62
2023/04/04 08:39:13;;;;;;;2.03;1.88;;;11.80;99.90;;;;;;5006527;28;20643;-62
2023/04/04 08:41:44;;;;;;;4.20;1.95;;;12.50;99.90;;;;;;5012690;28;20192;-61
2023/04/04 08:44:16;;;;;;;4.00;2.15;;;11.70;99.90;;;;;;5016653;28;20213;-63
2023/04/04 08:46:44;;;;;;;4.05;2.58;;;12.10;99.90;;;;;;5016870;28;20183;-63
2023/04/04 08:49:13;;;;;;;3.97;2.45;;;12.30;99.90;;;;;;5010120;28;20237;-62
2023/04/04 08:51:40;;;;;;;5.63;2.35;;;11.50;99.90;;;;;;5013565;28;20184;-63
2023/04/04 08:54:07;;;;;;;5.20;2.40;;;11.40;99.90;;;;;;5025719;28;20554;-63
2023/04/04 08:56:34;;;;;;;2.55;2.35;;;10.30;99.90;;;;;;5005697;28;20660;-64
2023/04/04 08:59:00;;;;;;;2.57;2.17;;;9.50;99.90;;;;;;5009667;28;20191;-65
2023/04/04 09:01:28;;;;;;;3.27;1.93;;;9.10;99.90;;;;;;5009870;28;20670;-65
2023/04/04 09:03:56;;;;;;;3.60;2.77;;;8.80;99.90;;;;;;5018310;28;20194;-64
2023/04/04 09:06:23;;;;;;;2.93;2.03;;;8.60;99.90;;;;;;5017911;28;20247;-65
2023/04/04 09:08:52;;;;;;;2.90;2.70;;;8.50;99.90;;;;;;5010124;28;20237;-65
2023/04/04 09:11:20;;;;;;;3.83;2.13;;;8.40;99.90;;;;;;5010915;28;20199;-67
2023/04/04 09:13:49;;;;;;;2.47;2.37;;;8.10;99.90;;;;;;5004295;28;20210;-67
2023/04/04 09:16:16;;;;;;;2.63;2.40;;;8.00;99.90;;;;;;5008073;28;20195;-67
2023/04/04 09:18:42;;;;;;;4.33;2.30;;;7.90;99.90;;;;;;5011998;28;20712;-64
2023/04/04 09:21:12;;;;;;;2.97;2.60;;;7.70;99.90;;;;;;5007002;28;20191;-66
2023/04/04 09:23:38;;;;;;;3.17;2.33;;;8.00;99.90;;;;;;5016740;28;20196;-65
2023/04/04 09:26:05;;;;;;;2.60;2.40;;;7.80;99.90;;;;;;5005761;28;20696;-66
2023/04/04 09:28:31;;;;;;;4.70;2.63;;;7.60;99.90;;;;;;5011385;28;20636;-64
2023/04/04 09:31:01;;;;;;;4.97;3.13;;;7.40;99.90;;;;;;5003608;28;20192;-64
2023/04/04 09:33:26;;;;;;;3.27;3.00;;;7.80;99.90;;;;;;5007011;28;20621;-64
2023/04/04 09:36:03;;;;;;;2.97;2.70;;;8.10;99.90;;;;;;5003361;28;20285;-62
2023/04/04 09:38:31;;;;;;;4.33;3.10;;;8.00;99.90;;;;;;5015824;28;20272;-65
2023/04/04 09:40:57;;;;;;;4.27;3.13;;;7.90;99.90;;;;;;5010884;28;20641;-64
2023/04/04 09:43:24;;;;;;;2.50;2.27;;;8.00;99.90;;;;;;5008913;28;20194;-64
2023/04/04 09:45:50;;;;;;;2.97;2.63;;;7.60;99.90;;;;;;5013064;28;20190;-64
2023/04/04 09:48:33;;;;;;;3.17;2.60;;;7.50;99.90;;;;;;5013639;28;20187;-66
2023/04/04 09:51:02;;;;;;;3.63;3.00;;;7.50;99.90;;;;;;5006599;28;20184;-63
2023/04/04 09:53:28;;;;;;;4.97;2.90;;;7.70;99.90;;;;;;5015593;28;20211;-64
2023/04/04 09:55:54;;;;;;;3.17;2.70;;;7.90;99.90;;;;;;5007686;28;20198;-63
2023/04/04 09:58:28;;;;;;;3.37;2.53;;;8.10;99.90;;;;;;5012572;28;20191;-64
2023/04/04 10:00:56;;;;;;;2.63;2.43;;;8.10;99.90;;;;;;5013339;28;20210;-62
2023/04/04 10:03:23;;;;;;;8.07;2.97;;;8.20;99.90;;;;;;5014613;28;20190;-64
2023/04/04 10:06:09;;;;;;;2.77;2.57;;;8.10;99.90;;;;;;5024818;28;20266;-64
2023/04/04 10:08:39;;;;;;;5.87;3.20;;;7.90;99.90;;;;;;5005297;28;20644;-65
2023/04/04 10:11:05;;;;;;;4.17;2.60;;;7.70;99.90;;;;;;5017266;28;20188;-65
2023/04/04 10:13:34;;;;;;;3.27;2.77;;;7.70;99.90;;;;;;5022813;28;20219;-64
2023/04/04 10:16:02;;;;;;;2.67;2.33;;;7.70;99.90;;;;;;5010282;28;20602;-64
2023/04/04 10:18:30;;;;;;;3.20;2.40;;;7.80;99.90;;;;;;5012718;28;20258;-63
2023/04/04 10:20:58;;;;;;;3.37;2.50;;;8.00;99.90;;;;;;5011572;28;20719;-65
2023/04/04 10:23:26;;;;;;;3.63;2.70;;;8.10;99.90;;;;;;5013879;28;20195;-64
2023/04/04 10:25:56;;;;;;;3.43;3.00;;;8.10;99.90;;;;;;5011426;28;20179;-64
2023/04/04 10:28:23;;;;;;;3.50;2.87;;;8.10;99.90;;;;;;5008500;28;20187;-65
2023/04/04 10:30:51;;;;;;;4.97;2.97;;;8.50;99.90;;;;;;5014276;28;20270;-64
2023/04/04 10:33:47;;;;;;;3.33;3.03;;;8.60;99.90;;;;;;5011728;28;20716;-65
2023/04/04 10:36:15;;;;;;;8.73;3.03;;;8.10;99.90;;;;;;5013483;28;20201;-69
2023/04/04 10:38:44;;;;;;;2.40;2.20;;;8.00;99.90;;;;;;5016649;28;20759;-64
2023/04/04 10:41:11;;;;;;;4.60;2.40;;;8.40;99.90;;;;;;5011305;28;20235;-65
2023/04/04 10:43:43;;;;;;;6.00;3.40;;;8.60;99.90;;;;;;5017982;28;20183;-66
2023/04/04 10:46:16;;;;;;;3.63;2.87;;;8.70;99.90;;;;;;5017316;28;20205;-68
2023/04/04 10:48:43;;;;;;;4.73;2.70;;;9.00;99.90;;;;;;5014247;28;20195;-68
2023/04/04 10:51:10;;;;;;;5.10;2.83;;;8.70;99.90;;;;;;5012458;28;20245;-69
2023/04/04 10:53:38;;;;;;;3.87;3.23;;;8.70;99.90;;;;;;5013172;28;20218;-72
2023/04/04 10:56:05;;;;;;;3.60;3.10;;;8.50;99.90;;;;;;5012753;28;20187;-64
2023/04/04 10:58:31;;;;;;;3.47;3.07;;;8.70;99.90;;;;;;5013583;28;20319;-65
2023/04/04 11:00:58;;;;;;;5.80;3.73;;;9.00;99.90;;;;;;5003515;28;20221;-65
2023/04/04 11:03:24;;;;;;;3.37;2.60;;;8.80;99.90;;;;;;5015553;28;20190;-65
2023/04/04 11:05:54;;;;;;;4.47;3.30;;;8.50;99.90;;;;;;5015318;28;20543;-64
2023/04/04 11:08:25;;;;;;;4.90;3.00;;;8.50;99.90;;;;;;5027804;28;20190;-66
2023/04/04 11:10:53;;;;;;;3.30;3.00;;;8.60;99.90;;;;;;5005623;28;20195;-65
2023/04/04 11:13:28;;;;;;;4.20;3.13;;;8.90;99.90;;;;;;5022132;28;20223;-63
2023/04/04 11:16:04;;;;;;;4.47;3.80;;;9.20;99.90;;;;;;5003964;28;20183;-65
2023/04/04 11:18:42;;;;;;;4.03;3.37;;;9.10;99.90;;;;;;5022823;28;20582;-65
2023/04/04 11:21:18;;;;;;;4.57;3.40;;;8.70;99.90;;;;;;5024391;28;20194;-63
2023/04/04 11:23:47;;;;;;;6.17;3.53;;;8.80;99.90;;;;;;5029077;28;20191;-65
2023/04/04 11:26:26;;;;;;;5.00;3.07;;;8.80;99.90;;;;;;5025475;28;20182;-64
2023/04/04 11:28:55;;;;;;;3.93;3.03;;;8.60;99.90;;;;;;5029439;28;20174;-67
2023/04/04 11:31:24;;;;;;;3.80;3.47;;;8.70;99.90;;;;;;5006056;28;20271;-65
2023/04/04 11:34:05;;;;;;;2.73;2.50;;;8.70;99.90;;;;;;5006414;28;20207;-63
2023/04/04 11:36:34;;;;;;;3.10;2.83;;;8.90;99.90;;;;;;5014440;28;20707;-64
2023/04/04 11:39:23;;;;;;;4.57;3.50;;;8.90;99.90;;;;;;5011019;28;20714;-63
2023/04/04 11:41:53;;;;;;;5.10;3.37;;;8.90;99.90;;;;;;5015950;28;20578;-63
2023/04/04 11:44:29;;;;;;;6.37;2.60;;;8.80;99.90;;;;;;5008063;28;20601;-64
2023/04/04 11:47:05;;;;;;;3.87;2.90;;;8.80;99.90;;;;;;5021869;28;20183;-62
2023/04/04 11:49:35;;;;;;;4.27;2.87;;;8.80;99.90;;;;;;5009856;28;20187;-62
2023/04/04 11:52:12;;;;;;;6.83;4.13;;;8.90;99.90;;;;;;5009796;28;20195;-62
2023/04/04 11:54:39;;;;;;;4.60;2.70;;;9.00;99.90;;;;;;5010638;28;20646;-63
2023/04/04 11:57:10;;;;;;;4.40;2.67;;;9.00;99.90;;;;;;5010823;28;20183;-64
2023/04/04 11:59:47;;;;;;;4.63;2.97;;;8.80;99.90;;;;;;5017989;28;20191;-64
2023/04/04 12:02:19;;;;;;;4.60;2.83;;;8.70;99.90;;;;;;5012488;28;20191;-63
2023/04/04 12:04:46;;;;;;;3.33;2.97;;;8.90;99.90;;;;;;5020001;28;20197;-63
2023/04/04 12:07:12;;;;;;;4.90;3.53;;;9.00;99.90;;;;;;5018320;28;20191;-63
2023/04/04 12:09:39;;;;;;;4.10;2.73;;;9.20;99.90;;;;;;5010485;28;20278;-65
2023/04/04 12:12:06;;;;;;;5.57;2.60;;;9.20;99.90;;;;;;5009801;28;20623;-63
2023/04/04 12:14:33;;;;;;;3.17;2.70;;;9.50;99.90;;;;;;5019770;28;20187;-63
2023/04/04 12:16:59;;;;;;;2.87;2.53;;;9.70;99.90;;;;;;5012428;28;20250;-63
2023/04/04 12:19:27;;;;;;;6.60;2.53;;;9.90;99.90;;;;;;5011866;28;20671;-65
2023/04/04 12:21:56;;;;;;;3.73;3.03;;;10.00;99.90;;;;;;5005376;28;20188;-66
2023/04/04 12:24:22;;;;;;;5.10;3.23;;;9.90;99.90;;;;;;5012698;28;20290;-65
2023/04/04 12:26:51;;;;;;;4.87;3.33;;;9.50;99.90;;;;;;5011131;28;20268;-65
2023/04/04 12:29:19;;;;;;;4.93;2.97;;;9.20;99.90;;;;;;5009771;28;20188;-65
2023/04/04 12:31:46;;;;;;;3.20;2.90;;;9.00;99.90;;;;;;5008696;28;20202;-65
2023/04/04 12:34:27;;;;;;;6.60;3.40;;;9.00;99.90;;;;;;5012099;28;20204;-64
2023/04/04 12:36:57;;;;;;;4.20;3.07;;;9.10;99.90;;;;;;5014786;28;20273;-65
2023/04/04 12:39:28;;;;;;;4.70;3.30;;;9.10;99.90;;;;;;5007964;28;20230;-65
2023/04/04 12:41:59;;;;;;;4.27;3.57;;;9.50;99.90;;;;;;5006782;28;20195;-63
2023/04/04 12:44:44;;;;;;;3.00;2.80;;;9.80;99.90;;;;;;5007565;28;20187;-63
2023/04/04 12:47:16;;;;;;;3.67;2.90;;;10.00;99.90;;;;;;5019666;28;20195;-67
2023/04/04 12:49:49;;;;;;;3.53;3.20;;;9.80;99.90;;;;;;5020852;28;20186;-64
2023/04/04 12:52:18;;;;;;;3.77;3.13;;;9.50;99.90;;;;;;5009820;28;20175;-68
2023/04/04 12:54:45;;;;;;;2.90;2.70;;;9.40;99.90;;;;;;5000475;28;20187;-65
2023/04/04 12:57:13;;;;;;;6.57;3.37;;;9.50;99.90;;;;;;5007131;28;20196;-65